sensor_id;sensor_type;location;lat;lon;timestamp;P1;durP1;ratioP1;P2;durP2;ratioP2
13204;SDS011;6667;52.634;9.226;2023-06-22T00:00:06;3.50;;;3.20;;
13204;SDS011;6667;52.634;9.226;2023-06-22T00:16:28;3.60;;;3.30;;
13204;SDS011;6667;52.634;9.226;2023-06-22T00:23:16;4.88;;;3.40;;
13204;SDS011;6667;52.634;9.226;2023-06-22T00:25:52;3.88;;;3.20;;
13204;SDS011;6667;52.634;9.226;2023-06-22T00:35:19;3.45;;;3.15;;
13204;SDS011;6667;52.634;9.226;2023-06-22T00:41:23;3.80;;;3.33;;
13204;SDS011;6667;52.634;9.226;2023-06-22T00:44:36;4.60;;;3.13;;
13204;SDS011;6667;52.634;9.226;2023-06-22T00:47:51;4.50;;;3.20;;
13204;SDS011;6667;52.634;9.226;2023-06-22T00:54:17;4.88;;;2.90;;
13204;SDS011;6667;52.634;9.226;2023-06-22T01:00:39;4.43;;;3.65;;
13204;SDS011;6667;52.634;9.226;2023-06-22T01:20:28;4.25;;;3.35;;
13204;SDS011;6667;52.634;9.226;2023-06-22T01:23:05;5.60;;;3.63;;
13204;SDS011;6667;52.634;9.226;2023-06-22T01:25:53;4.20;;;3.80;;
13204;SDS011;6667;52.634;9.226;2023-06-22T01:28:39;4.45;;;3.67;;
13204;SDS011;6667;52.634;9.226;2023-06-22T01:31:26;5.00;;;3.90;;
13204;SDS011;6667;52.634;9.226;2023-06-22T01:36:59;4.32;;;3.78;;
13204;SDS011;6667;52.634;9.226;2023-06-22T01:39:30;4.40;;;3.97;;
13204;SDS011;6667;52.634;9.226;2023-06-22T01:42:00;5.10;;;4.60;;
13204;SDS011;6667;52.634;9.226;2023-06-22T01:51:56;5.28;;;4.22;;
13204;SDS011;6667;52.634;9.226;2023-06-22T01:54:29;4.97;;;4.20;;
13204;SDS011;6667;52.634;9.226;2023-06-22T01:56:58;5.82;;;4.03;;
13204;SDS011;6667;52.634;9.226;2023-06-22T01:59:31;5.40;;;3.92;;
13204;SDS011;6667;52.634;9.226;2023-06-22T02:02:38;5.00;;;4.50;;
13204;SDS011;6667;52.634;9.226;2023-06-22T02:08:41;5.28;;;4.75;;
13204;SDS011;6667;52.634;9.226;2023-06-22T02:41:46;5.10;;;4.60;;
13204;SDS011;6667;52.634;9.226;2023-06-22T02:44:27;5.65;;;4.45;;
13204;SDS011;6667;52.634;9.226;2023-06-22T02:50:25;5.93;;;4.85;;
13204;SDS011;6667;52.634;9.226;2023-06-22T02:53:36;5.32;;;4.65;;
13204;SDS011;6667;52.634;9.226;2023-06-22T02:56:24;6.90;;;4.70;;
13204;SDS011;6667;52.634;9.226;2023-06-22T03:02:48;6.15;;;4.85;;
13204;SDS011;6667;52.634;9.226;2023-06-22T03:12:13;5.30;;;4.80;;
13204;SDS011;6667;52.634;9.226;2023-06-22T03:14:57;6.35;;;4.70;;
13204;SDS011;6667;52.634;9.226;2023-06-22T03:17:26;5.80;;;5.18;;
13204;SDS011;6667;52.634;9.226;2023-06-22T03:19:59;8.90;;;5.32;;
13204;SDS011;6667;52.634;9.226;2023-06-22T03:22:44;6.50;;;4.65;;
13204;SDS011;6667;52.634;9.226;2023-06-22T03:25:53;7.90;;;5.88;;
13204;SDS011;6667;52.634;9.226;2023-06-22T03:31:59;5.65;;;5.03;;
13204;SDS011;6667;52.634;9.226;2023-06-22T03:38:05;6.43;;;5.82;;
13204;SDS011;6667;52.634;9.226;2023-06-22T03:47:31;7.43;;;5.10;;
13204;SDS011;6667;52.634;9.226;2023-06-22T03:53:09;6.18;;;4.93;;
13204;SDS011;6667;52.634;9.226;2023-06-22T03:55:50;6.80;;;5.40;;
13204;SDS011;6667;52.634;9.226;2023-06-22T03:58:19;7.40;;;5.28;;
13204;SDS011;6667;52.634;9.226;2023-06-22T04:00:52;7.13;;;5.95;;
13204;SDS011;6667;52.634;9.226;2023-06-22T04:03:24;8.65;;;5.60;;
13204;SDS011;6667;52.634;9.226;2023-06-22T04:05:53;6.93;;;5.32;;
13204;SDS011;6667;52.634;9.226;2023-06-22T04:08:22;7.03;;;5.32;;
13204;SDS011;6667;52.634;9.226;2023-06-22T04:10:53;7.20;;;5.18;;
13204;SDS011;6667;52.634;9.226;2023-06-22T04:13:24;5.10;;;4.60;;
13204;SDS011;6667;52.634;9.226;2023-06-22T04:15:54;6.53;;;5.75;;
13204;SDS011;6667;52.634;9.226;2023-06-22T04:18:25;5.82;;;5.22;;
13204;SDS011;6667;52.634;9.226;2023-06-22T04:20:54;12.45;;;5.93;;
13204;SDS011;6667;52.634;9.226;2023-06-22T04:26:11;8.60;;;5.85;;
13204;SDS011;6667;52.634;9.226;2023-06-22T04:28:41;5.78;;;5.05;;
13204;SDS011;6667;52.634;9.226;2023-06-22T04:31:17;6.25;;;5.07;;
13204;SDS011;6667;52.634;9.226;2023-06-22T04:37:01;6.95;;;4.97;;
13204;SDS011;6667;52.634;9.226;2023-06-22T04:39:43;5.85;;;5.22;;
13204;SDS011;6667;52.634;9.226;2023-06-22T04:42:25;6.82;;;5.22;;
13204;SDS011;6667;52.634;9.226;2023-06-22T04:45:42;5.82;;;5.22;;
13204;SDS011;6667;52.634;9.226;2023-06-22T04:48:34;7.88;;;4.57;;
13204;SDS011;6667;52.634;9.226;2023-06-22T04:51:09;7.93;;;4.88;;
13204;SDS011;6667;52.634;9.226;2023-06-22T04:53:40;5.78;;;4.32;;
13204;SDS011;6667;52.634;9.226;2023-06-22T04:56:16;6.55;;;4.80;;
13204;SDS011;6667;52.634;9.226;2023-06-22T04:59:05;7.47;;;4.85;;
13204;SDS011;6667;52.634;9.226;2023-06-22T05:02:05;5.55;;;4.72;;
13204;SDS011;6667;52.634;9.226;2023-06-22T05:04:45;7.55;;;4.63;;
13204;SDS011;6667;52.634;9.226;2023-06-22T05:07:43;7.28;;;4.68;;
13204;SDS011;6667;52.634;9.226;2023-06-22T05:10:21;6.47;;;4.63;;
13204;SDS011;6667;52.634;9.226;2023-06-22T05:13:06;9.98;;;4.68;;
13204;SDS011;6667;52.634;9.226;2023-06-22T05:15:38;8.88;;;4.03;;
13204;SDS011;6667;52.634;9.226;2023-06-22T05:18:14;7.72;;;4.35;;
13204;SDS011;6667;52.634;9.226;2023-06-22T05:20:52;5.97;;;3.97;;
13204;SDS011;6667;52.634;9.226;2023-06-22T05:26:36;4.88;;;3.80;;
13204;SDS011;6667;52.634;9.226;2023-06-22T05:29:18;5.28;;;3.80;;
13204;SDS011;6667;52.634;9.226;2023-06-22T05:31:58;7.10;;;3.85;;
13204;SDS011;6667;52.634;9.226;2023-06-22T05:38:28;5.50;;;3.70;;
13204;SDS011;6667;52.634;9.226;2023-06-22T05:41:24;4.65;;;3.13;;
13204;SDS011;6667;52.634;9.226;2023-06-22T05:44:20;6.40;;;3.67;;
13204;SDS011;6667;52.634;9.226;2023-06-22T05:47:16;5.82;;;4.25;;
13204;SDS011;6667;52.634;9.226;2023-06-22T05:50:01;5.43;;;4.13;;
13204;SDS011;6667;52.634;9.226;2023-06-22T05:52:36;5.55;;;4.22;;
13204;SDS011;6667;52.634;9.226;2023-06-22T05:55:27;6.63;;;3.97;;
13204;SDS011;6667;52.634;9.226;2023-06-22T05:58:03;6.50;;;4.20;;
13204;SDS011;6667;52.634;9.226;2023-06-22T06:00:55;4.63;;;4.20;;
13204;SDS011;6667;52.634;9.226;2023-06-22T06:03:34;4.43;;;4.03;;
13204;SDS011;6667;52.634;9.226;2023-06-22T06:06:21;6.05;;;4.07;;
13204;SDS011;6667;52.634;9.226;2023-06-22T06:09:04;3.95;;;3.55;;
13204;SDS011;6667;52.634;9.226;2023-06-22T06:11:44;3.45;;;3.17;;
13204;SDS011;6667;52.634;9.226;2023-06-22T06:14:25;4.00;;;3.35;;
13204;SDS011;6667;52.634;9.226;2023-06-22T06:17:08;3.33;;;3.03;;
13204;SDS011;6667;52.634;9.226;2023-06-22T06:19:55;3.45;;;2.92;;
13204;SDS011;6667;52.634;9.226;2023-06-22T06:22:34;3.65;;;3.17;;
13204;SDS011;6667;52.634;9.226;2023-06-22T06:25:20;3.70;;;3.05;;
13204;SDS011;6667;52.634;9.226;2023-06-22T06:27:54;2.95;;;2.75;;
13204;SDS011;6667;52.634;9.226;2023-06-22T06:30:38;4.88;;;3.38;;
13204;SDS011;6667;52.634;9.226;2023-06-22T06:33:15;3.60;;;3.28;;
13204;SDS011;6667;52.634;9.226;2023-06-22T06:35:56;3.67;;;3.05;;
13204;SDS011;6667;52.634;9.226;2023-06-22T06:38:31;3.35;;;3.05;;
13204;SDS011;6667;52.634;9.226;2023-06-22T06:41:08;5.10;;;3.20;;
13204;SDS011;6667;52.634;9.226;2023-06-22T06:43:48;4.22;;;3.00;;
13204;SDS011;6667;52.634;9.226;2023-06-22T06:46:24;3.97;;;3.08;;
13204;SDS011;6667;52.634;9.226;2023-06-22T06:49:04;4.80;;;3.30;;
13204;SDS011;6667;52.634;9.226;2023-06-22T06:55:24;3.53;;;3.22;;
13204;SDS011;6667;52.634;9.226;2023-06-22T06:58:09;4.20;;;3.20;;
13204;SDS011;6667;52.634;9.226;2023-06-22T07:00:49;3.78;;;3.35;;
13204;SDS011;6667;52.634;9.226;2023-06-22T07:03:31;3.85;;;3.28;;
13204;SDS011;6667;52.634;9.226;2023-06-22T07:06:23;3.67;;;3.30;;
13204;SDS011;6667;52.634;9.226;2023-06-22T07:12:28;5.22;;;2.72;;
13204;SDS011;6667;52.634;9.226;2023-06-22T07:15:11;4.68;;;3.08;;
13204;SDS011;6667;52.634;9.226;2023-06-22T07:17:55;7.72;;;3.28;;
13204;SDS011;6667;52.634;9.226;2023-06-22T07:20:37;3.35;;;2.90;;
13204;SDS011;6667;52.634;9.226;2023-06-22T07:30:17;2.85;;;2.58;;
13204;SDS011;6667;52.634;9.226;2023-06-22T07:32:57;3.78;;;3.47;;
13204;SDS011;6667;52.634;9.226;2023-06-22T07:35:36;3.63;;;2.90;;
13204;SDS011;6667;52.634;9.226;2023-06-22T07:38:12;3.75;;;3.00;;
13204;SDS011;6667;52.634;9.226;2023-06-22T07:44:20;3.13;;;2.85;;
13204;SDS011;6667;52.634;9.226;2023-06-22T07:47:29;3.95;;;2.90;;
13204;SDS011;6667;52.634;9.226;2023-06-22T07:56:15;4.57;;;3.58;;
13204;SDS011;6667;52.634;9.226;2023-06-22T07:59:12;3.70;;;3.10;;
13204;SDS011;6667;52.634;9.226;2023-06-22T08:01:45;12.55;;;3.53;;
13204;SDS011;6667;52.634;9.226;2023-06-22T08:04:14;4.57;;;3.45;;
13204;SDS011;6667;52.634;9.226;2023-06-22T08:06:59;9.98;;;3.05;;
13204;SDS011;6667;52.634;9.226;2023-06-22T08:09:45;4.35;;;3.53;;
13204;SDS011;6667;52.634;9.226;2023-06-22T08:12:20;4.28;;;3.65;;
13204;SDS011;6667;52.634;9.226;2023-06-22T08:14:53;3.75;;;3.40;;
13204;SDS011;6667;52.634;9.226;2023-06-22T08:17:31;4.22;;;3.83;;
13204;SDS011;6667;52.634;9.226;2023-06-22T08:20:00;3.95;;;3.25;;
13204;SDS011;6667;52.634;9.226;2023-06-22T08:22:36;3.40;;;3.03;;
13204;SDS011;6667;52.634;9.226;2023-06-22T08:25:05;3.28;;;2.97;;
13204;SDS011;6667;52.634;9.226;2023-06-22T08:27:34;3.97;;;3.67;;
13204;SDS011;6667;52.634;9.226;2023-06-22T08:30:05;3.95;;;3.28;;
13204;SDS011;6667;52.634;9.226;2023-06-22T08:32:40;3.80;;;3.35;;
13204;SDS011;6667;52.634;9.226;2023-06-22T08:35:08;4.20;;;3.90;;
13204;SDS011;6667;52.634;9.226;2023-06-22T08:37:36;4.88;;;3.65;;
13204;SDS011;6667;52.634;9.226;2023-06-22T08:40:11;4.18;;;3.17;;
13204;SDS011;6667;52.634;9.226;2023-06-22T08:43:18;4.65;;;4.07;;
13204;SDS011;6667;52.634;9.226;2023-06-22T08:45:45;3.80;;;3.50;;
13204;SDS011;6667;52.634;9.226;2023-06-22T08:48:14;3.92;;;3.63;;
13204;SDS011;6667;52.634;9.226;2023-06-22T08:50:47;4.80;;;3.88;;
13204;SDS011;6667;52.634;9.226;2023-06-22T08:53:17;3.72;;;3.42;;
13204;SDS011;6667;52.634;9.226;2023-06-22T08:55:47;4.13;;;3.72;;
13204;SDS011;6667;52.634;9.226;2023-06-22T08:58:35;4.32;;;3.88;;
13204;SDS011;6667;52.634;9.226;2023-06-22T09:01:03;5.47;;;3.67;;
13204;SDS011;6667;52.634;9.226;2023-06-22T09:03:32;4.47;;;3.70;;
13204;SDS011;6667;52.634;9.226;2023-06-22T09:06:03;9.13;;;4.35;;
13204;SDS011;6667;52.634;9.226;2023-06-22T09:08:31;4.93;;;3.72;;
13204;SDS011;6667;52.634;9.226;2023-06-22T09:11:06;7.40;;;3.90;;
13204;SDS011;6667;52.634;9.226;2023-06-22T09:13:34;3.92;;;3.63;;
13204;SDS011;6667;52.634;9.226;2023-06-22T09:16:02;5.00;;;3.80;;
13204;SDS011;6667;52.634;9.226;2023-06-22T09:18:30;4.28;;;3.65;;
13204;SDS011;6667;52.634;9.226;2023-06-22T09:21:01;4.68;;;4.28;;
13204;SDS011;6667;52.634;9.226;2023-06-22T09:23:29;5.32;;;4.05;;
13204;SDS011;6667;52.634;9.226;2023-06-22T09:26:26;4.47;;;4.07;;
13204;SDS011;6667;52.634;9.226;2023-06-22T09:29:03;5.10;;;4.60;;
13204;SDS011;6667;52.634;9.226;2023-06-22T09:31:35;6.00;;;4.60;;
13204;SDS011;6667;52.634;9.226;2023-06-22T09:37:46;5.00;;;3.80;;
13204;SDS011;6667;52.634;9.226;2023-06-22T09:43:07;5.10;;;4.45;;
13204;SDS011;6667;52.634;9.226;2023-06-22T09:45:34;5.95;;;5.03;;
13204;SDS011;6667;52.634;9.226;2023-06-22T09:48:03;6.93;;;4.43;;
13204;SDS011;6667;52.634;9.226;2023-06-22T09:50:35;7.38;;;4.80;;
13204;SDS011;6667;52.634;9.226;2023-06-22T09:56:00;5.18;;;4.68;;
13204;SDS011;6667;52.634;9.226;2023-06-22T09:58:29;6.68;;;5.60;;
13204;SDS011;6667;52.634;9.226;2023-06-22T10:04:21;5.50;;;5.00;;
13204;SDS011;6667;52.634;9.226;2023-06-22T10:10:24;5.68;;;5.10;;
13204;SDS011;6667;52.634;9.226;2023-06-22T10:15:42;6.30;;;5.70;;
13204;SDS011;6667;52.634;9.226;2023-06-22T10:25:12;5.28;;;4.85;;
13204;SDS011;6667;52.634;9.226;2023-06-22T10:38:19;5.43;;;4.93;;
13204;SDS011;6667;52.634;9.226;2023-06-22T10:51:04;6.20;;;5.28;;
13204;SDS011;6667;52.634;9.226;2023-06-22T10:57:30;6.05;;;5.45;;
13204;SDS011;6667;52.634;9.226;2023-06-22T11:13:45;6.78;;;6.10;;
13204;SDS011;6667;52.634;9.226;2023-06-22T11:16:55;7.13;;;6.00;;
13204;SDS011;6667;52.634;9.226;2023-06-22T11:19:30;6.10;;;5.57;;
13204;SDS011;6667;52.634;9.226;2023-06-22T11:22:02;6.78;;;6.10;;
13204;SDS011;6667;52.634;9.226;2023-06-22T11:24:41;8.70;;;6.78;;
13204;SDS011;6667;52.634;9.226;2023-06-22T11:34:45;7.47;;;6.78;;
13204;SDS011;6667;52.634;9.226;2023-06-22T11:37:27;7.63;;;6.82;;
13204;SDS011;6667;52.634;9.226;2023-06-22T11:40:21;7.60;;;6.90;;
13204;SDS011;6667;52.634;9.226;2023-06-22T11:50:01;8.30;;;7.50;;
13204;SDS011;6667;52.634;9.226;2023-06-22T11:55:16;7.35;;;6.20;;
13204;SDS011;6667;52.634;9.226;2023-06-22T11:58:11;7.63;;;6.72;;
13204;SDS011;6667;52.634;9.226;2023-06-22T12:01:24;6.70;;;6.00;;
13204;SDS011;6667;52.634;9.226;2023-06-22T12:03:58;7.63;;;6.80;;
13204;SDS011;6667;52.634;9.226;2023-06-22T12:06:26;8.15;;;6.90;;
13204;SDS011;6667;52.634;9.226;2023-06-22T12:08:56;6.75;;;6.18;;
13204;SDS011;6667;52.634;9.226;2023-06-22T12:11:31;10.07;;;6.85;;
13204;SDS011;6667;52.634;9.226;2023-06-22T12:17:47;8.05;;;6.93;;
13204;SDS011;6667;52.634;9.226;2023-06-22T12:20:16;8.70;;;7.40;;
13204;SDS011;6667;52.634;9.226;2023-06-22T12:22:50;7.05;;;6.35;;
13204;SDS011;6667;52.634;9.226;2023-06-22T12:25:59;8.05;;;7.25;;
13204;SDS011;6667;52.634;9.226;2023-06-22T12:37:48;8.68;;;6.80;;
13204;SDS011;6667;52.634;9.226;2023-06-22T12:40:30;8.50;;;7.28;;
13204;SDS011;6667;52.634;9.226;2023-06-22T12:42:58;8.02;;;6.93;;
13204;SDS011;6667;52.634;9.226;2023-06-22T12:45:27;8.48;;;7.45;;
13204;SDS011;6667;52.634;9.226;2023-06-22T12:50:57;8.60;;;7.75;;
13204;SDS011;6667;52.634;9.226;2023-06-22T12:53:25;8.13;;;7.15;;
13204;SDS011;6667;52.634;9.226;2023-06-22T12:56:02;8.02;;;7.20;;
13204;SDS011;6667;52.634;9.226;2023-06-22T12:58:30;7.57;;;6.88;;
13204;SDS011;6667;52.634;9.226;2023-06-22T13:01:04;6.57;;;5.88;;
13204;SDS011;6667;52.634;9.226;2023-06-22T13:03:33;7.00;;;5.35;;
13204;SDS011;6667;52.634;9.226;2023-06-22T13:06:04;7.32;;;6.15;;
13204;SDS011;6667;52.634;9.226;2023-06-22T13:08:56;6.72;;;6.13;;
13204;SDS011;6667;52.634;9.226;2023-06-22T13:11:53;7.22;;;5.80;;
13204;SDS011;6667;52.634;9.226;2023-06-22T13:15:05;6.93;;;6.32;;
13204;SDS011;6667;52.634;9.226;2023-06-22T13:17:36;7.57;;;6.75;;
13204;SDS011;6667;52.634;9.226;2023-06-22T13:20:03;7.50;;;6.70;;
13204;SDS011;6667;52.634;9.226;2023-06-22T13:22:33;7.68;;;7.05;;
13204;SDS011;6667;52.634;9.226;2023-06-22T13:25:05;8.07;;;7.38;;
13204;SDS011;6667;52.634;9.226;2023-06-22T13:27:37;7.82;;;7.13;;
13204;SDS011;6667;52.634;9.226;2023-06-22T13:34:20;6.82;;;6.22;;
13204;SDS011;6667;52.634;9.226;2023-06-22T13:40:31;7.93;;;7.20;;
13204;SDS011;6667;52.634;9.226;2023-06-22T13:43:32;8.35;;;7.13;;
13204;SDS011;6667;52.634;9.226;2023-06-22T13:46:00;7.85;;;7.10;;
13204;SDS011;6667;52.634;9.226;2023-06-22T13:48:38;8.75;;;7.25;;
13204;SDS011;6667;52.634;9.226;2023-06-22T13:51:07;7.80;;;7.10;;
13204;SDS011;6667;52.634;9.226;2023-06-22T13:55:42;7.38;;;6.72;;
13204;SDS011;6667;52.634;9.226;2023-06-22T13:56:59;12.20;;;7.38;;
13204;SDS011;6667;52.634;9.226;2023-06-22T13:59:35;9.10;;;7.13;;
13204;SDS011;6667;52.634;9.226;2023-06-22T14:02:51;7.47;;;6.78;;
13204;SDS011;6667;52.634;9.226;2023-06-22T14:05:23;7.95;;;7.15;;
13204;SDS011;6667;52.634;9.226;2023-06-22T14:07:51;8.73;;;6.88;;
13204;SDS011;6667;52.634;9.226;2023-06-22T14:11:00;7.20;;;6.50;;
13204;SDS011;6667;52.634;9.226;2023-06-22T14:13:32;8.15;;;7.40;;
13204;SDS011;6667;52.634;9.226;2023-06-22T14:16:33;8.38;;;6.97;;
13204;SDS011;6667;52.634;9.226;2023-06-22T14:19:17;8.13;;;7.00;;
13204;SDS011;6667;52.634;9.226;2023-06-22T14:23:32;8.43;;;7.00;;
13204;SDS011;6667;52.634;9.226;2023-06-22T14:25:30;9.93;;;7.93;;
13204;SDS011;6667;52.634;9.226;2023-06-22T14:35:17;8.63;;;7.82;;
13204;SDS011;6667;52.634;9.226;2023-06-22T14:37:46;10.18;;;8.43;;
13204;SDS011;6667;52.634;9.226;2023-06-22T14:40:22;9.43;;;8.43;;
13204;SDS011;6667;52.634;9.226;2023-06-22T14:47:01;9.10;;;8.20;;
13204;SDS011;6667;52.634;9.226;2023-06-22T14:55:57;10.23;;;8.57;;
13204;SDS011;6667;52.634;9.226;2023-06-22T14:59:07;9.52;;;8.57;;
13204;SDS011;6667;52.634;9.226;2023-06-22T15:01:45;10.43;;;9.07;;
13204;SDS011;6667;52.634;9.226;2023-06-22T15:04:16;10.73;;;9.45;;
13204;SDS011;6667;52.634;9.226;2023-06-22T15:06:44;10.63;;;9.35;;
13204;SDS011;6667;52.634;9.226;2023-06-22T15:10:02;10.02;;;9.02;;
13204;SDS011;6667;52.634;9.226;2023-06-22T15:12:32;14.43;;;9.88;;
13204;SDS011;6667;52.634;9.226;2023-06-22T15:14:59;11.23;;;10.10;;
13204;SDS011;6667;52.634;9.226;2023-06-22T15:17:49;12.43;;;10.30;;
13204;SDS011;6667;52.634;9.226;2023-06-22T15:20:22;15.27;;;11.00;;
13204;SDS011;6667;52.634;9.226;2023-06-22T15:22:52;12.77;;;10.68;;
13204;SDS011;6667;52.634;9.226;2023-06-22T15:25:25;11.90;;;10.70;;
13204;SDS011;6667;52.634;9.226;2023-06-22T15:31:51;14.68;;;11.70;;
13204;SDS011;6667;52.634;9.226;2023-06-22T15:37:34;13.65;;;10.80;;
13204;SDS011;6667;52.634;9.226;2023-06-22T15:40:19;11.90;;;10.20;;
13204;SDS011;6667;52.634;9.226;2023-06-22T15:42:59;10.80;;;9.68;;
13204;SDS011;6667;52.634;9.226;2023-06-22T15:45:36;10.70;;;9.70;;
13204;SDS011;6667;52.634;9.226;2023-06-22T15:48:04;11.07;;;9.25;;
13204;SDS011;6667;52.634;9.226;2023-06-22T15:50:31;10.93;;;9.07;;
13204;SDS011;6667;52.634;9.226;2023-06-22T15:52:58;10.70;;;9.60;;
13204;SDS011;6667;52.634;9.226;2023-06-22T15:55:25;11.05;;;9.88;;
13204;SDS011;6667;52.634;9.226;2023-06-22T15:57:53;10.00;;;9.00;;
13204;SDS011;6667;52.634;9.226;2023-06-22T16:00:20;10.50;;;9.40;;
13204;SDS011;6667;52.634;9.226;2023-06-22T16:02:49;12.65;;;9.30;;
13204;SDS011;6667;52.634;9.226;2023-06-22T16:11:46;10.10;;;9.10;;
13204;SDS011;6667;52.634;9.226;2023-06-22T16:21:03;12.13;;;10.27;;
13204;SDS011;6667;52.634;9.226;2023-06-22T16:23:46;10.52;;;9.45;;
13204;SDS011;6667;52.634;9.226;2023-06-22T16:26:13;11.02;;;9.82;;
13204;SDS011;6667;52.634;9.226;2023-06-22T16:28:40;12.52;;;10.60;;
13204;SDS011;6667;52.634;9.226;2023-06-22T16:31:07;13.07;;;9.93;;
13204;SDS011;6667;52.634;9.226;2023-06-22T16:33:34;10.55;;;9.13;;
13204;SDS011;6667;52.634;9.226;2023-06-22T16:39:18;10.35;;;9.27;;
13204;SDS011;6667;52.634;9.226;2023-06-22T16:42:02;9.55;;;8.52;;
13204;SDS011;6667;52.634;9.226;2023-06-22T16:44:29;12.13;;;9.60;;
13204;SDS011;6667;52.634;9.226;2023-06-22T16:46:57;9.88;;;7.93;;
13204;SDS011;6667;52.634;9.226;2023-06-22T16:49:25;11.15;;;8.60;;
13204;SDS011;6667;52.634;9.226;2023-06-22T16:51:57;11.73;;;8.43;;
13204;SDS011;6667;52.634;9.226;2023-06-22T16:54:29;8.90;;;8.00;;
13204;SDS011;6667;52.634;9.226;2023-06-22T17:02:57;9.40;;;8.43;;
13204;SDS011;6667;52.634;9.226;2023-06-22T17:06:02;9.18;;;8.18;;
13204;SDS011;6667;52.634;9.226;2023-06-22T17:12:27;10.57;;;8.48;;
13204;SDS011;6667;52.634;9.226;2023-06-22T17:15:09;11.45;;;9.10;;
13204;SDS011;6667;52.634;9.226;2023-06-22T17:17:39;9.55;;;8.32;;
13204;SDS011;6667;52.634;9.226;2023-06-22T17:20:10;9.02;;;8.10;;
13204;SDS011;6667;52.634;9.226;2023-06-22T17:25:48;10.85;;;8.43;;
13204;SDS011;6667;52.634;9.226;2023-06-22T17:28:25;9.70;;;8.70;;
13204;SDS011;6667;52.634;9.226;2023-06-22T17:31:17;9.95;;;8.73;;
13204;SDS011;6667;52.634;9.226;2023-06-22T17:34:08;8.90;;;8.00;;
13204;SDS011;6667;52.634;9.226;2023-06-22T17:36:42;9.15;;;7.75;;
13204;SDS011;6667;52.634;9.226;2023-06-22T17:39:15;9.98;;;8.05;;
13204;SDS011;6667;52.634;9.226;2023-06-22T17:41:46;10.35;;;8.10;;
13204;SDS011;6667;52.634;9.226;2023-06-22T17:48:15;9.35;;;8.13;;
13204;SDS011;6667;52.634;9.226;2023-06-22T17:57:54;8.40;;;7.13;;
13204;SDS011;6667;52.634;9.226;2023-06-22T18:04:31;9.30;;;8.32;;
13204;SDS011;6667;52.634;9.226;2023-06-22T18:07:33;10.75;;;8.02;;
13204;SDS011;6667;52.634;9.226;2023-06-22T18:13:24;10.20;;;7.65;;
13204;SDS011;6667;52.634;9.226;2023-06-22T18:16:01;8.93;;;7.30;;
13204;SDS011;6667;52.634;9.226;2023-06-22T18:18:32;10.15;;;7.25;;
13204;SDS011;6667;52.634;9.226;2023-06-22T18:21:06;10.38;;;7.65;;
13204;SDS011;6667;52.634;9.226;2023-06-22T18:23:41;9.95;;;8.27;;
13204;SDS011;6667;52.634;9.226;2023-06-22T18:26:13;9.63;;;7.18;;
13204;SDS011;6667;52.634;9.226;2023-06-22T18:28:56;9.90;;;8.23;;
13204;SDS011;6667;52.634;9.226;2023-06-22T18:31:31;8.30;;;7.47;;
13204;SDS011;6667;52.634;9.226;2023-06-22T18:34:02;10.23;;;7.60;;
13204;SDS011;6667;52.634;9.226;2023-06-22T18:36:37;8.20;;;7.35;;
13204;SDS011;6667;52.634;9.226;2023-06-22T18:39:09;9.25;;;8.32;;
13204;SDS011;6667;52.634;9.226;2023-06-22T18:41:40;12.90;;;7.72;;
13204;SDS011;6667;52.634;9.226;2023-06-22T18:44:17;8.43;;;7.38;;
13204;SDS011;6667;52.634;9.226;2023-06-22T18:46:49;8.93;;;7.35;;
13204;SDS011;6667;52.634;9.226;2023-06-22T18:49:21;9.40;;;8.07;;
13204;SDS011;6667;52.634;9.226;2023-06-22T18:51:54;10.60;;;7.75;;
13204;SDS011;6667;52.634;9.226;2023-06-22T18:54:23;10.43;;;7.57;;
13204;SDS011;6667;52.634;9.226;2023-06-22T18:56:57;11.10;;;8.73;;
13204;SDS011;6667;52.634;9.226;2023-06-22T18:59:45;9.40;;;8.35;;
13204;SDS011;6667;52.634;9.226;2023-06-22T19:02:34;7.55;;;6.75;;
13204;SDS011;6667;52.634;9.226;2023-06-22T19:11:45;10.20;;;7.88;;
13204;SDS011;6667;52.634;9.226;2023-06-22T19:14:20;9.32;;;7.90;;
13204;SDS011;6667;52.634;9.226;2023-06-22T19:20:22;8.50;;;7.50;;
13204;SDS011;6667;52.634;9.226;2023-06-22T19:23:01;9.63;;;8.32;;
13204;SDS011;6667;52.634;9.226;2023-06-22T19:25:34;9.15;;;7.75;;
13204;SDS011;6667;52.634;9.226;2023-06-22T19:34:34;15.50;;;7.32;;
13204;SDS011;6667;52.634;9.226;2023-06-22T19:37:14;9.85;;;8.57;;
13204;SDS011;6667;52.634;9.226;2023-06-22T19:39:46;10.75;;;7.65;;
13204;SDS011;6667;52.634;9.226;2023-06-22T19:42:30;9.75;;;8.38;;
13204;SDS011;6667;52.634;9.226;2023-06-22T19:44:59;11.75;;;9.18;;
13204;SDS011;6667;52.634;9.226;2023-06-22T19:50:44;10.75;;;7.90;;
13204;SDS011;6667;52.634;9.226;2023-06-22T19:53:13;10.95;;;8.65;;
13204;SDS011;6667;52.634;9.226;2023-06-22T19:55:42;9.75;;;8.45;;
13204;SDS011;6667;52.634;9.226;2023-06-22T19:58:13;9.55;;;7.70;;
13204;SDS011;6667;52.634;9.226;2023-06-22T20:00:41;9.95;;;8.40;;
13204;SDS011;6667;52.634;9.226;2023-06-22T20:03:10;9.43;;;8.52;;
13204;SDS011;6667;52.634;9.226;2023-06-22T20:05:43;9.98;;;8.65;;
13204;SDS011;6667;52.634;9.226;2023-06-22T20:08:30;10.48;;;9.30;;
13204;SDS011;6667;52.634;9.226;2023-06-22T20:11:08;10.88;;;8.90;;
13204;SDS011;6667;52.634;9.226;2023-06-22T20:13:37;10.20;;;9.05;;
13204;SDS011;6667;52.634;9.226;2023-06-22T20:16:12;10.32;;;8.48;;
13204;SDS011;6667;52.634;9.226;2023-06-22T20:18:41;10.07;;;8.73;;
13204;SDS011;6667;52.634;9.226;2023-06-22T20:21:09;10.13;;;9.00;;
13204;SDS011;6667;52.634;9.226;2023-06-22T20:23:36;11.57;;;9.13;;
13204;SDS011;6667;52.634;9.226;2023-06-22T20:26:07;10.65;;;8.73;;
13204;SDS011;6667;52.634;9.226;2023-06-22T20:28:35;9.13;;;8.23;;
13204;SDS011;6667;52.634;9.226;2023-06-22T20:31:04;10.18;;;8.57;;
13204;SDS011;6667;52.634;9.226;2023-06-22T20:33:32;10.43;;;8.77;;
13204;SDS011;6667;52.634;9.226;2023-06-22T20:36:00;11.00;;;8.80;;
13204;SDS011;6667;52.634;9.226;2023-06-22T20:38:28;11.63;;;9.48;;
13204;SDS011;6667;52.634;9.226;2023-06-22T20:40:57;10.52;;;9.43;;
13204;SDS011;6667;52.634;9.226;2023-06-22T20:43:25;10.18;;;9.13;;
13204;SDS011;6667;52.634;9.226;2023-06-22T20:45:54;9.93;;;8.82;;
13204;SDS011;6667;52.634;9.226;2023-06-22T20:48:21;12.73;;;10.10;;
13204;SDS011;6667;52.634;9.226;2023-06-22T20:50:48;11.13;;;9.90;;
13204;SDS011;6667;52.634;9.226;2023-06-22T20:53:15;10.20;;;9.20;;
13204;SDS011;6667;52.634;9.226;2023-06-22T20:55:47;12.50;;;9.05;;
13204;SDS011;6667;52.634;9.226;2023-06-22T20:58:14;10.75;;;9.68;;
13204;SDS011;6667;52.634;9.226;2023-06-22T21:00:41;10.95;;;9.77;;
13204;SDS011;6667;52.634;9.226;2023-06-22T21:03:10;10.57;;;9.48;;
13204;SDS011;6667;52.634;9.226;2023-06-22T21:05:38;12.77;;;10.15;;
13204;SDS011;6667;52.634;9.226;2023-06-22T21:08:06;11.20;;;9.82;;
13204;SDS011;6667;52.634;9.226;2023-06-22T21:10:33;12.60;;;9.93;;
13204;SDS011;6667;52.634;9.226;2023-06-22T21:13:00;10.80;;;9.70;;
13204;SDS011;6667;52.634;9.226;2023-06-22T21:15:27;10.95;;;9.80;;
13204;SDS011;6667;52.634;9.226;2023-06-22T21:17:55;11.98;;;9.05;;
